Overview Statistics Trail Chart Weather Telemetry Raw packets
 

This is the latest recevied weather packets stored in our database for station/object K0SDS. If no packets are shown the sender has not sent any weather packets the latest 10 day(s).

<< 1 2 3 4 >>
Time Temp. Humidity Pressure Rain* Wind** Luminosity Snow
1788576758 30.56° C 61% 1012.1 hPa 0 mm - 0 W/m² -
1788576453 30° C 62% 1011.9 hPa 0 mm - 0 W/m² -
1788576150 30° C 62% 1012.2 hPa 0 mm - 0 W/m² -
1788575849 30° C 62% 1011.9 hPa 0 mm - 0 W/m² -
1788575544 28.89° C 65% 1011.9 hPa 0 mm - 0 W/m² -
1788575243 28.89° C 66% 1011.7 hPa 0 mm - 0 W/m² -
1788574939 27.78° C 69% 1011.8 hPa 0 mm - 0 W/m² -
1788574633 27.22° C 73% 1011.9 hPa 0 mm - 0 W/m² -
1788574329 27.22° C 74% 1011.9 hPa 0 mm - 0 W/m² -
1788574023 27.22° C 74% 1011.8 hPa 0 mm - 0 W/m² -
1788573719 27.22° C 74% 1011.8 hPa 0 mm - 0 W/m² -
1788573417 27.22° C 72% 1011.8 hPa 0 mm - 0 W/m² -
1788573112 27.22° C 71% 1011.6 hPa 0 mm - 0 W/m² -
1788572810 27.78° C 70% 1011.5 hPa 0 mm - 0 W/m² -
1788572506 27.78° C 69% 1011.5 hPa 0 mm - 0 W/m² -
1788572203 28.33° C 68% 1011.2 hPa 0 mm - 0 W/m² -
1788571898 28.89° C 66% 1011.2 hPa 0 mm - 0 W/m² -
1788571598 28.89° C 65% 1011.5 hPa 0 mm - 0 W/m² -
1788571295 29.44° C 64% 1011.2 hPa 0 mm - 0 W/m² -
1788570991 29.44° C 64% 1011.3 hPa 0 mm - 0 W/m² -
1788570686 30° C 62% 1011.3 hPa 0 mm - 0 W/m² -
1788570381 30.56° C 62% 1011.2 hPa 0 mm - 0 W/m² -
1788570076 31.11° C 60% 1011.1 hPa 0 mm - 0 W/m² -
1788569772 31.11° C 59% 1011.2 hPa 0 mm - 0 W/m² -
1788569468 31.67° C 58% 1011.2 hPa 0 mm - 0 W/m² -

* Rain latest hour (hover to see other rain measurements)
** Current wind speed in m/s (hover to see current wind gust speed)